createdAt,value
2023-01-26T00:00:38.325Z,0.70
2023-01-26T00:02:40.019Z,0.66
2023-01-26T00:04:41.660Z,0.68
2023-01-26T00:06:43.280Z,0.71
2023-01-26T00:08:47.511Z,0.48
2023-01-26T00:10:51.985Z,0.49
2023-01-26T00:12:53.653Z,0.51
2023-01-26T00:14:55.209Z,0.59
2023-01-26T00:16:56.780Z,0.62
2023-01-26T00:18:58.449Z,0.61
2023-01-26T00:21:01.785Z,0.51
2023-01-26T00:23:03.438Z,0.57
2023-01-26T00:25:05.398Z,0.65
2023-01-26T00:27:06.940Z,0.64
2023-01-26T00:29:09.707Z,0.69
2023-01-26T00:31:18.350Z,0.70
2023-01-26T00:33:19.993Z,0.51
2023-01-26T00:35:21.552Z,0.50
2023-01-26T00:37:23.188Z,0.34
2023-01-26T00:39:24.852Z,0.43
2023-01-26T00:41:44.651Z,0.36
2023-01-26T00:43:46.240Z,0.43
2023-01-26T00:45:47.910Z,0.37
2023-01-26T00:47:49.600Z,0.42
2023-01-26T00:49:51.340Z,0.41
2023-01-26T00:51:52.904Z,0.40
2023-01-26T00:53:54.533Z,0.47
2023-01-26T00:55:58.127Z,0.48
2023-01-26T00:58:00.700Z,0.40
2023-01-26T01:00:02.343Z,0.32
2023-01-26T01:02:04.344Z,0.21
2023-01-26T01:04:06.006Z,0.29
2023-01-26T01:06:07.610Z,0.36
2023-01-26T01:08:09.233Z,0.42
2023-01-26T01:10:11.622Z,0.39
2023-01-26T01:12:13.309Z,0.36
2023-01-26T01:14:15.445Z,0.35
2023-01-26T01:16:17.383Z,0.45
2023-01-26T01:18:19.073Z,0.57
2023-01-26T01:20:20.773Z,0.63
2023-01-26T01:22:22.493Z,0.73
2023-01-26T01:24:24.200Z,0.39
2023-01-26T01:26:26.623Z,0.34
2023-01-26T01:28:28.686Z,0.29
2023-01-26T01:30:30.308Z,0.20
2023-01-26T01:32:31.873Z,0.21
2023-01-26T01:34:33.462Z,0.32
2023-01-26T01:36:35.131Z,0.31
2023-01-26T01:38:36.728Z,0.42
2023-01-26T01:40:43.370Z,0.52
2023-01-26T01:42:48.821Z,0.66
2023-01-26T01:45:21.399Z,0.76
2023-01-26T01:47:26.712Z,0.52
2023-01-26T01:49:31.970Z,0.55
2023-01-26T01:51:51.471Z,0.44
2023-01-26T01:53:54.510Z,0.44
2023-01-26T01:55:59.197Z,0.39
2023-01-26T01:58:01.888Z,0.47
2023-01-26T02:00:09.111Z,0.55
2023-01-26T02:02:10.935Z,0.39
2023-01-26T02:04:12.640Z,0.36
2023-01-26T02:06:16.753Z,0.45
2023-01-26T02:08:19.811Z,0.49
2023-01-26T02:10:21.786Z,0.46
2023-01-26T02:12:27.932Z,0.58
2023-01-26T02:14:29.699Z,0.58
2023-01-26T02:16:31.313Z,0.51
2023-01-26T02:18:33.090Z,0.52
2023-01-26T02:20:47.269Z,0.49
2023-01-26T02:22:55.105Z,0.54
2023-01-26T02:24:59.729Z,0.38
2023-01-26T02:27:01.581Z,0.38
2023-01-26T02:29:05.031Z,0.39
2023-01-26T02:31:06.887Z,0.36
2023-01-26T02:33:15.349Z,0.18
2023-01-26T02:35:16.989Z,0.24
2023-01-26T02:37:18.603Z,0.20
2023-01-26T02:39:32.364Z,0.24
2023-01-26T02:41:52.787Z,0.28
2023-01-26T02:43:54.419Z,0.31
2023-01-26T02:45:56.067Z,0.31
2023-01-26T02:47:58.016Z,0.39
2023-01-26T02:50:00.653Z,0.38
2023-01-26T02:52:02.266Z,0.38
2023-01-26T02:54:03.989Z,0.47
2023-01-26T02:56:05.971Z,0.38
2023-01-26T02:58:08.206Z,0.39
2023-01-26T03:00:12.738Z,0.34
2023-01-26T03:02:15.792Z,0.37
2023-01-26T03:04:17.418Z,0.33
2023-01-26T03:06:19.029Z,0.33
2023-01-26T03:08:20.625Z,0.34
2023-01-26T03:10:24.276Z,0.24
2023-01-26T03:12:26.338Z,0.17
2023-01-26T03:14:27.988Z,0.22
2023-01-26T03:16:29.596Z,0.29
2023-01-26T03:18:49.451Z,0.25
2023-01-26T03:21:09.908Z,0.11
2023-01-26T03:23:30.006Z,0.05
2023-01-26T03:25:49.983Z,0.01
2023-01-26T03:27:51.575Z,0.06
2023-01-26T03:29:54.057Z,0.19
2023-01-26T03:31:55.672Z,0.35
2023-01-26T03:33:57.295Z,0.32
2023-01-26T03:35:58.982Z,0.32
2023-01-26T03:38:00.604Z,0.40
2023-01-26T03:40:21.717Z,0.52
2023-01-26T03:42:41.813Z,0.53
2023-01-26T03:45:01.674Z,0.49
2023-01-26T03:47:21.897Z,0.49
2023-01-26T03:49:41.909Z,0.46
2023-01-26T03:52:01.704Z,0.38
2023-01-26T03:54:22.149Z,0.39
2023-01-26T03:56:32.349Z,0.43
2023-01-26T03:58:34.041Z,0.51
2023-01-26T04:00:35.609Z,0.49
2023-01-26T04:02:55.534Z,0.59
2023-01-26T04:05:15.945Z,0.61
2023-01-26T04:07:37.581Z,0.64
2023-01-26T04:09:42.029Z,0.67
2023-01-26T04:11:43.803Z,0.58
2023-01-26T04:14:03.854Z,0.53
2023-01-26T04:16:24.725Z,0.46
2023-01-26T04:18:44.811Z,0.37
2023-01-26T04:21:04.905Z,0.31
2023-01-26T04:23:06.525Z,0.33
2023-01-26T04:25:09.265Z,0.31
2023-01-26T04:27:11.792Z,0.31
2023-01-26T04:29:15.054Z,0.33
2023-01-26T04:31:16.898Z,0.42
2023-01-26T04:33:18.544Z,0.37
2023-01-26T04:35:20.202Z,0.35
2023-01-26T04:37:22.368Z,0.22
2023-01-26T04:39:24.025Z,0.14
2023-01-26T04:41:25.707Z,0.14
2023-01-26T04:43:27.440Z,0.08
2023-01-26T04:45:29.031Z,0.13
2023-01-26T04:47:30.775Z,0.21
2023-01-26T04:49:32.426Z,0.33
2023-01-26T04:51:34.336Z,0.34
2023-01-26T04:53:35.958Z,0.28
2023-01-26T04:55:37.603Z,0.35
2023-01-26T04:57:39.285Z,0.35
2023-01-26T04:59:40.894Z,0.38
2023-01-26T05:01:42.809Z,0.40
2023-01-26T05:03:44.698Z,0.48
2023-01-26T05:05:50.062Z,0.53
2023-01-26T05:07:53.365Z,0.43
2023-01-26T05:09:55.755Z,0.46
2023-01-26T05:12:17.366Z,0.28
2023-01-26T05:14:19.030Z,0.13
2023-01-26T05:16:20.793Z,0.10
2023-01-26T05:18:22.419Z,0.23
2023-01-26T05:20:23.997Z,0.37
2023-01-26T05:22:25.623Z,0.43
2023-01-26T05:24:27.223Z,0.46
2023-01-26T05:26:28.839Z,0.54
2023-01-26T05:28:30.646Z,0.52
2023-01-26T05:30:32.379Z,0.45
2023-01-26T05:32:34.011Z,0.37
2023-01-26T05:34:35.573Z,0.37
2023-01-26T05:36:37.373Z,0.35
2023-01-26T05:38:39.070Z,0.37
2023-01-26T05:40:40.672Z,0.45
2023-01-26T05:42:44.116Z,0.46
2023-01-26T05:44:45.755Z,0.54
2023-01-26T05:46:47.367Z,0.57
2023-01-26T05:48:48.985Z,0.68
2023-01-26T05:50:50.583Z,0.62
2023-01-26T05:52:52.160Z,0.56
2023-01-26T05:54:53.778Z,0.54
2023-01-26T05:56:57.444Z,0.58
2023-01-26T05:58:59.134Z,0.73
2023-01-26T06:01:04.529Z,0.84
2023-01-26T06:03:06.121Z,0.92
2023-01-26T06:05:08.543Z,0.94
2023-01-26T06:07:10.392Z,0.91
2023-01-26T06:09:12.199Z,0.93
2023-01-26T06:11:13.840Z,1.02
2023-01-26T06:13:15.440Z,1.02
2023-01-26T06:15:17.096Z,1.09
2023-01-26T06:17:18.827Z,1.06
2023-01-26T06:19:20.501Z,0.89
2023-01-26T06:21:22.342Z,0.78
2023-01-26T06:23:24.156Z,0.69
2023-01-26T06:25:25.736Z,0.73
2023-01-26T06:27:27.337Z,0.76
2023-01-26T06:29:29.503Z,0.72
2023-01-26T06:31:31.366Z,0.78
2023-01-26T06:33:34.946Z,0.79
2023-01-26T06:35:36.645Z,0.85
2023-01-26T06:37:38.483Z,0.85
2023-01-26T06:39:41.665Z,0.94
2023-01-26T06:41:44.494Z,0.93
2023-01-26T06:43:48.287Z,0.95
2023-01-26T06:45:49.904Z,0.96
2023-01-26T06:47:52.199Z,1.00
2023-01-26T06:49:54.354Z,1.16
2023-01-26T06:52:04.541Z,1.13
2023-01-26T06:54:06.222Z,1.16
2023-01-26T06:56:07.873Z,1.10
2023-01-26T06:58:09.431Z,0.99
2023-01-26T07:00:12.671Z,1.07
2023-01-26T07:02:20.165Z,0.91
2023-01-26T07:04:26.002Z,0.91
2023-01-26T07:06:27.598Z,0.95
2023-01-26T07:08:29.467Z,0.96
2023-01-26T07:10:31.098Z,0.95
2023-01-26T07:12:43.226Z,1.02
2023-01-26T07:14:44.799Z,1.01
2023-01-26T07:16:46.392Z,0.86
2023-01-26T07:18:48.012Z,0.95
2023-01-26T07:20:49.659Z,0.86
2023-01-26T07:22:51.852Z,0.94
2023-01-26T07:24:53.623Z,0.98
2023-01-26T07:26:56.181Z,1.02
2023-01-26T07:28:57.750Z,1.12
2023-01-26T07:31:00.156Z,1.23
2023-01-26T07:33:01.858Z,1.21
2023-01-26T07:35:03.828Z,1.25
2023-01-26T07:37:05.481Z,1.24
2023-01-26T07:39:08.604Z,1.21
2023-01-26T07:41:12.510Z,1.21
2023-01-26T07:43:15.347Z,1.25
2023-01-26T07:45:19.771Z,1.20
2023-01-26T07:47:21.331Z,1.18
2023-01-26T07:49:22.926Z,1.30
2023-01-26T07:51:24.589Z,1.37
2023-01-26T07:53:29.240Z,1.24
2023-01-26T07:55:31.074Z,1.25
2023-01-26T07:57:33.969Z,1.31
2023-01-26T07:59:35.657Z,1.30
2023-01-26T08:01:37.343Z,1.37
2023-01-26T08:03:39.511Z,1.49
2023-01-26T08:05:43.601Z,1.55
2023-01-26T08:07:45.191Z,1.47
2023-01-26T08:09:46.771Z,1.47
2023-01-26T08:11:48.639Z,1.51
2023-01-26T08:13:50.223Z,1.47
2023-01-26T08:15:52.127Z,1.52
2023-01-26T08:17:54.661Z,1.62
2023-01-26T08:19:56.257Z,1.52
2023-01-26T08:21:58.085Z,1.54
2023-01-26T08:24:02.095Z,1.52
2023-01-26T08:26:06.160Z,1.49
2023-01-26T08:28:07.882Z,1.58
2023-01-26T08:30:10.328Z,1.68
2023-01-26T08:32:12.495Z,1.73
2023-01-26T08:34:14.145Z,1.73
2023-01-26T08:36:15.770Z,1.78
2023-01-26T08:38:17.503Z,1.67
2023-01-26T08:40:19.249Z,1.62
2023-01-26T08:42:22.565Z,1.67
2023-01-26T08:44:24.443Z,1.69
2023-01-26T08:46:26.570Z,1.60
2023-01-26T08:48:29.560Z,1.60
2023-01-26T08:50:31.194Z,1.59
2023-01-26T08:52:32.826Z,1.61
2023-01-26T08:54:34.455Z,1.67
2023-01-26T08:56:36.145Z,1.61
2023-01-26T08:58:38.047Z,1.68
2023-01-26T09:00:39.872Z,1.74
2023-01-26T09:02:41.568Z,1.80
2023-01-26T09:04:43.198Z,1.84
2023-01-26T09:06:44.838Z,1.87
2023-01-26T09:08:46.416Z,1.86
2023-01-26T09:10:47.984Z,1.77
2023-01-26T09:12:49.560Z,1.75
2023-01-26T09:14:51.120Z,1.73
2023-01-26T09:16:52.750Z,1.69
2023-01-26T09:18:54.659Z,1.75
2023-01-26T09:21:02.819Z,1.86
2023-01-26T09:23:04.581Z,1.94
2023-01-26T09:25:06.755Z,1.84
2023-01-26T09:27:09.151Z,1.91
2023-01-26T09:29:10.864Z,1.92
2023-01-26T09:31:12.810Z,1.92
2023-01-26T09:33:14.466Z,1.88
2023-01-26T09:35:16.555Z,1.92
2023-01-26T09:37:18.803Z,1.97
2023-01-26T09:39:20.389Z,1.99
2023-01-26T09:41:41.052Z,2.07
2023-01-26T09:44:05.103Z,2.01
2023-01-26T09:46:09.684Z,1.97
2023-01-26T09:48:34.938Z,2.01
2023-01-26T09:50:42.137Z,2.05
2023-01-26T09:52:54.599Z,2.01
2023-01-26T09:54:59.255Z,1.87
2023-01-26T09:57:13.774Z,1.73
2023-01-26T09:59:38.566Z,1.78
2023-01-26T10:02:07.700Z,1.91
2023-01-26T10:04:23.266Z,1.88
2023-01-26T10:06:28.557Z,1.82
2023-01-26T10:08:30.813Z,1.91
2023-01-26T10:10:41.583Z,1.87
2023-01-26T10:12:43.362Z,1.91
2023-01-26T10:14:50.139Z,1.96
2023-01-26T10:16:53.305Z,1.94
2023-01-26T10:19:00.642Z,1.82
2023-01-26T10:21:04.327Z,1.75
2023-01-26T10:23:12.118Z,1.78
2023-01-26T10:25:28.233Z,1.86
2023-01-26T10:27:29.874Z,1.77
2023-01-26T10:29:31.494Z,1.56
2023-01-26T10:31:34.531Z,1.58
2023-01-26T10:33:37.764Z,1.71
2023-01-26T10:35:39.555Z,1.82
2023-01-26T10:37:41.333Z,1.78
2023-01-26T10:40:12.280Z,1.80
2023-01-26T10:42:18.408Z,1.88
2023-01-26T10:44:33.307Z,1.99
2023-01-26T10:46:38.032Z,2.02
2023-01-26T10:48:39.791Z,1.99
2023-01-26T10:50:41.484Z,1.88
2023-01-26T10:52:58.253Z,2.02
2023-01-26T10:55:17.306Z,2.01
2023-01-26T10:57:19.512Z,2.10
2023-01-26T10:59:44.071Z,1.97
2023-01-26T11:01:54.000Z,2.08
2023-01-26T11:04:06.038Z,2.16
2023-01-26T11:06:14.821Z,2.19
2023-01-26T11:08:34.814Z,2.25
2023-01-26T11:10:38.377Z,2.32
2023-01-26T11:12:40.051Z,2.41
2023-01-26T11:14:41.623Z,2.42
2023-01-26T11:16:49.834Z,2.35
2023-01-26T11:19:19.516Z,2.34
2023-01-26T11:21:32.158Z,2.21
2023-01-26T11:23:42.743Z,2.31
2023-01-26T11:26:09.421Z,2.38
2023-01-26T11:28:28.323Z,2.39
2023-01-26T11:30:40.450Z,2.32
2023-01-26T11:32:57.300Z,2.38
2023-01-26T11:35:14.393Z,2.46
2023-01-26T11:37:27.903Z,2.52
2023-01-26T11:39:42.102Z,2.41
2023-01-26T11:41:58.379Z,2.44
2023-01-26T11:44:30.371Z,2.58
2023-01-26T11:46:52.947Z,2.73
2023-01-26T11:49:07.467Z,2.72
2023-01-26T11:51:41.422Z,2.76
2023-01-26T11:54:03.829Z,2.51
2023-01-26T11:56:33.839Z,2.40
2023-01-26T11:58:36.935Z,2.36
2023-01-26T12:00:43.707Z,2.34
2023-01-26T12:02:54.320Z,2.35
2023-01-26T12:04:58.906Z,2.40
2023-01-26T12:07:05.339Z,2.46
2023-01-26T12:09:33.412Z,2.52
2023-01-26T12:11:56.253Z,2.30
2023-01-26T12:14:18.833Z,2.29
2023-01-26T12:16:42.273Z,2.34
2023-01-26T12:19:09.810Z,2.39
2023-01-26T12:21:12.231Z,2.34
2023-01-26T12:23:19.174Z,2.29
2023-01-26T12:25:40.373Z,2.38
2023-01-26T12:27:49.830Z,2.48
2023-01-26T12:30:19.234Z,2.49
2023-01-26T12:32:22.638Z,2.40
2023-01-26T12:34:30.037Z,2.39
2023-01-26T12:36:51.124Z,2.39
2023-01-26T12:38:58.445Z,2.30
2023-01-26T12:41:35.640Z,2.31
2023-01-26T12:43:57.986Z,2.40
2023-01-26T12:46:00.917Z,2.43
2023-01-26T12:48:14.884Z,2.40
2023-01-26T12:50:37.670Z,2.38
2023-01-26T12:52:54.789Z,2.27
2023-01-26T12:55:20.448Z,2.27
2023-01-26T12:57:26.624Z,2.35
2023-01-26T12:59:46.805Z,2.32
2023-01-26T13:01:50.487Z,2.39
2023-01-26T13:04:00.354Z,2.42
2023-01-26T13:06:19.291Z,2.46
2023-01-26T13:08:30.202Z,2.50
2023-01-26T13:10:45.258Z,2.52
2023-01-26T13:12:47.933Z,2.50
2023-01-26T13:14:49.550Z,2.48
2023-01-26T13:16:51.262Z,2.43
2023-01-26T13:18:57.615Z,2.54
2023-01-26T13:20:59.442Z,2.58
2023-01-26T13:23:01.176Z,2.66
2023-01-26T13:25:19.403Z,2.56
2023-01-26T13:27:39.204Z,2.39
2023-01-26T13:29:55.384Z,2.36
2023-01-26T13:32:23.063Z,2.36
2023-01-26T13:34:47.239Z,2.38
2023-01-26T13:36:49.561Z,2.37
2023-01-26T13:39:04.228Z,2.35
2023-01-26T13:41:21.158Z,2.48
2023-01-26T13:43:28.528Z,2.41
2023-01-26T13:45:38.752Z,2.36
2023-01-26T13:47:46.180Z,2.53
2023-01-26T13:49:50.449Z,2.51
2023-01-26T13:51:52.154Z,2.53
2023-01-26T13:54:06.883Z,2.49
2023-01-26T13:56:21.668Z,2.44
2023-01-26T13:58:23.654Z,2.44
2023-01-26T14:00:25.364Z,2.45
2023-01-26T14:02:32.749Z,2.54
2023-01-26T14:04:35.351Z,2.60
2023-01-26T14:06:37.774Z,2.67
2023-01-26T14:08:39.579Z,2.65
2023-01-26T14:10:44.165Z,2.69
2023-01-26T14:12:47.410Z,2.76
2023-01-26T14:14:51.803Z,2.77
2023-01-26T14:16:53.645Z,2.72
2023-01-26T14:19:05.859Z,2.74
2023-01-26T14:21:20.711Z,2.63
2023-01-26T14:23:22.292Z,2.70
2023-01-26T14:25:23.901Z,2.73
2023-01-26T14:27:40.081Z,2.74
2023-01-26T14:29:41.688Z,2.64
2023-01-26T14:31:43.287Z,2.60
2023-01-26T14:33:45.235Z,2.45
2023-01-26T14:35:58.811Z,2.52
2023-01-26T14:38:06.701Z,2.62
2023-01-26T14:40:24.868Z,2.68
2023-01-26T14:42:26.528Z,2.58
2023-01-26T14:44:28.217Z,2.60
2023-01-26T14:46:36.074Z,2.69
2023-01-26T14:48:46.525Z,2.69
2023-01-26T14:50:48.394Z,2.59
2023-01-26T14:52:50.340Z,2.50
2023-01-26T14:55:32.246Z,2.37
2023-01-26T14:57:33.950Z,2.41
2023-01-26T14:59:39.965Z,2.46
2023-01-26T15:01:41.763Z,2.58
2023-01-26T15:03:43.421Z,2.61
2023-01-26T15:05:45.128Z,2.55
2023-01-26T15:07:49.375Z,2.56
2023-01-26T15:09:53.845Z,2.57
2023-01-26T15:12:15.866Z,2.61
2023-01-26T15:14:45.803Z,2.53
2023-01-26T15:16:53.774Z,2.55
2023-01-26T15:19:03.902Z,2.51
2023-01-26T15:21:14.642Z,2.53
2023-01-26T15:23:26.475Z,2.60
2023-01-26T15:25:29.573Z,2.49
2023-01-26T15:27:33.146Z,2.40
2023-01-26T15:29:34.954Z,2.46
2023-01-26T15:31:42.400Z,2.40
2023-01-26T15:33:44.084Z,1.94
2023-01-26T15:35:57.480Z,1.81
2023-01-26T15:38:03.830Z,1.78
2023-01-26T15:40:05.869Z,1.55
2023-01-26T15:42:14.111Z,1.55
2023-01-26T15:44:20.232Z,1.54
2023-01-26T15:46:21.908Z,1.45
2023-01-26T15:48:24.545Z,1.42
2023-01-26T15:50:28.203Z,1.39
2023-01-26T15:52:30.625Z,1.49
2023-01-26T15:54:32.293Z,1.49
2023-01-26T15:56:33.953Z,1.41
2023-01-26T15:58:36.848Z,1.22
2023-01-26T16:00:39.152Z,1.10
2023-01-26T16:02:40.817Z,1.03
2023-01-26T16:04:42.867Z,0.96
2023-01-26T16:06:44.472Z,0.95
2023-01-26T16:08:46.081Z,0.99
2023-01-26T16:10:47.826Z,1.04
2023-01-26T16:12:50.923Z,1.09
2023-01-26T16:14:52.524Z,1.14
2023-01-26T16:16:54.166Z,1.03
2023-01-26T16:18:56.276Z,1.00
2023-01-26T16:20:57.956Z,0.86
2023-01-26T16:22:59.887Z,0.82
2023-01-26T16:25:01.451Z,0.57
2023-01-26T16:27:03.351Z,0.65
2023-01-26T16:29:04.925Z,0.67
2023-01-26T16:31:16.552Z,0.63
2023-01-26T16:33:24.530Z,0.71
2023-01-26T16:35:26.420Z,0.48
2023-01-26T16:37:28.035Z,0.44
2023-01-26T16:39:29.670Z,0.44
2023-01-26T16:41:32.592Z,0.44
2023-01-26T16:43:34.261Z,0.47
2023-01-26T16:45:35.893Z,0.42
2023-01-26T16:47:37.538Z,0.46
2023-01-26T16:49:39.209Z,0.46
2023-01-26T16:51:42.575Z,0.42
2023-01-26T16:53:44.466Z,0.44
2023-01-26T16:55:46.043Z,0.42
2023-01-26T16:57:49.894Z,0.27
2023-01-26T16:59:51.603Z,0.35
2023-01-26T17:01:53.291Z,0.27
2023-01-26T17:03:56.124Z,0.27
2023-01-26T17:05:57.861Z,0.11
2023-01-26T17:07:59.463Z,0.16
2023-01-26T17:10:01.133Z,0.24
2023-01-26T17:12:02.883Z,0.27
2023-01-26T17:14:04.636Z,0.29
2023-01-26T17:16:12.676Z,0.19
2023-01-26T17:18:14.315Z,0.28
2023-01-26T17:20:19.649Z,0.31
2023-01-26T17:22:21.693Z,0.35
2023-01-26T17:24:23.394Z,0.35
2023-01-26T17:26:25.059Z,0.40
2023-01-26T17:28:30.155Z,0.28
2023-01-26T17:30:31.838Z,0.37
2023-01-26T17:32:33.612Z,0.55
2023-01-26T17:34:35.267Z,0.65
2023-01-26T17:36:36.880Z,0.66
2023-01-26T17:38:38.513Z,0.39
2023-01-26T17:40:40.286Z,0.21
2023-01-26T17:42:41.858Z,0.08
2023-01-26T17:44:43.479Z,0.12
2023-01-26T17:46:45.173Z,0.22
2023-01-26T17:48:47.541Z,0.32
2023-01-26T17:50:49.789Z,0.43
2023-01-26T17:52:51.591Z,0.42
2023-01-26T17:54:53.327Z,0.44
2023-01-26T17:56:55.645Z,0.37
2023-01-26T17:58:57.279Z,0.32
2023-01-26T18:00:59.124Z,0.33
2023-01-26T18:03:00.714Z,0.44
2023-01-26T18:05:02.281Z,0.52
2023-01-26T18:07:04.026Z,0.47
2023-01-26T18:09:06.703Z,0.62
2023-01-26T18:11:13.078Z,0.74
2023-01-26T18:13:15.362Z,0.73
2023-01-26T18:15:17.102Z,0.65
2023-01-26T18:17:18.780Z,0.39
2023-01-26T18:19:20.448Z,0.27
2023-01-26T18:21:24.121Z,0.30
2023-01-26T18:23:25.848Z,0.20
2023-01-26T18:25:27.651Z,0.16
2023-01-26T18:27:29.266Z,-0.05
2023-01-26T18:29:30.818Z,-0.02
2023-01-26T18:31:34.778Z,-0.01
2023-01-26T18:33:36.497Z,0.04
2023-01-26T18:35:38.112Z,-0.07
2023-01-26T18:37:39.774Z,0.09
2023-01-26T18:39:41.402Z,-0.05
2023-01-26T18:41:43.589Z,0.01
2023-01-26T18:43:45.772Z,0.00
2023-01-26T18:45:47.471Z,0.12
2023-01-26T18:47:49.896Z,0.12
2023-01-26T18:49:52.456Z,0.06
2023-01-26T18:51:54.255Z,0.09
2023-01-26T18:53:55.937Z,0.08
2023-01-26T18:56:08.640Z,0.18
2023-01-26T18:58:10.275Z,0.17
2023-01-26T19:00:13.945Z,0.25
2023-01-26T19:02:15.749Z,0.28
2023-01-26T19:04:18.450Z,0.35
2023-01-26T19:06:20.375Z,0.24
2023-01-26T19:08:24.844Z,0.25
2023-01-26T19:10:26.480Z,0.28
2023-01-26T19:12:28.042Z,0.44
2023-01-26T19:14:30.009Z,0.55
2023-01-26T19:16:32.186Z,0.56
2023-01-26T19:18:33.797Z,0.54
2023-01-26T19:20:35.386Z,0.48
2023-01-26T19:22:37.012Z,0.43
2023-01-26T19:24:38.716Z,0.34
2023-01-26T19:26:40.317Z,0.42
2023-01-26T19:28:42.157Z,0.50
2023-01-26T19:30:44.446Z,0.43
2023-01-26T19:33:10.295Z,0.29
2023-01-26T19:35:14.490Z,0.27
2023-01-26T19:37:16.523Z,0.32
2023-01-26T19:39:18.276Z,0.36
2023-01-26T19:41:20.712Z,0.39
2023-01-26T19:43:22.378Z,0.42
2023-01-26T19:45:24.208Z,0.56
2023-01-26T19:47:25.773Z,0.58
2023-01-26T19:49:27.458Z,0.65
2023-01-26T19:51:29.548Z,0.63
2023-01-26T19:53:32.631Z,0.29
2023-01-26T19:55:34.810Z,0.31
2023-01-26T19:57:36.386Z,0.36
2023-01-26T19:59:37.984Z,0.36
2023-01-26T20:01:39.579Z,0.30
2023-01-26T20:03:41.226Z,0.23
2023-01-26T20:05:42.874Z,0.23
2023-01-26T20:07:44.957Z,0.24
2023-01-26T20:09:46.625Z,0.31
2023-01-26T20:11:49.135Z,0.35
2023-01-26T20:14:04.088Z,0.27
2023-01-26T20:16:09.855Z,0.41
2023-01-26T20:18:11.802Z,0.38
2023-01-26T20:20:13.700Z,0.48
2023-01-26T20:22:15.373Z,0.17
2023-01-26T20:24:17.557Z,0.02
2023-01-26T20:26:19.935Z,0.09
2023-01-26T20:28:21.568Z,0.18
2023-01-26T20:30:23.208Z,0.05
2023-01-26T20:32:24.789Z,0.11
2023-01-26T20:34:27.367Z,0.10
2023-01-26T20:36:29.294Z,0.17
2023-01-26T20:38:30.906Z,0.17
2023-01-26T20:40:32.543Z,0.14
2023-01-26T20:42:34.127Z,0.02
2023-01-26T20:44:35.691Z,0.01
2023-01-26T20:46:39.488Z,0.15
2023-01-26T20:48:41.703Z,0.30
2023-01-26T20:50:44.995Z,0.37
2023-01-26T20:52:46.777Z,0.11
2023-01-26T20:54:48.345Z,0.16
2023-01-26T20:56:51.378Z,0.08
2023-01-26T20:58:54.086Z,0.10
2023-01-26T21:01:03.647Z,0.25
2023-01-26T21:03:05.786Z,0.25
2023-01-26T21:05:08.543Z,0.25
2023-01-26T21:07:10.343Z,0.18
2023-01-26T21:09:12.981Z,0.22
2023-01-26T21:11:17.312Z,0.15
2023-01-26T21:13:19.457Z,0.05
2023-01-26T21:15:21.187Z,0.15
2023-01-26T21:17:23.079Z,0.18
2023-01-26T21:19:24.683Z,0.18
2023-01-26T21:21:26.520Z,0.28
2023-01-26T21:23:28.079Z,0.20
2023-01-26T21:25:29.676Z,-0.02
2023-01-26T21:27:31.549Z,-0.11
2023-01-26T21:29:33.171Z,-0.05
2023-01-26T21:31:34.872Z,0.07
2023-01-26T21:33:38.685Z,0.09
2023-01-26T21:35:40.361Z,-0.02
2023-01-26T21:37:42.031Z,-0.08
2023-01-26T21:39:43.839Z,0.07
2023-01-26T21:41:57.488Z,0.20
2023-01-26T21:44:02.623Z,0.25
2023-01-26T21:46:04.430Z,0.37
2023-01-26T21:48:25.561Z,0.53
2023-01-26T21:50:47.134Z,0.56
2023-01-26T21:52:57.667Z,0.56
2023-01-26T21:54:59.378Z,0.56
2023-01-26T21:57:02.127Z,0.60
2023-01-26T21:59:42.315Z,0.60
2023-01-26T22:01:46.268Z,0.74
2023-01-26T22:03:48.136Z,0.74
2023-01-26T22:05:53.460Z,0.55
2023-01-26T22:07:55.071Z,0.39
2023-01-26T22:09:56.876Z,0.31
2023-01-26T22:11:58.438Z,0.34
2023-01-26T22:14:00.433Z,0.20
2023-01-26T22:16:04.386Z,0.26
2023-01-26T22:18:06.294Z,0.37
2023-01-26T22:20:09.585Z,0.37
2023-01-26T22:22:11.221Z,0.44
2023-01-26T22:24:14.422Z,0.37
2023-01-26T22:26:19.584Z,0.11
2023-01-26T22:28:21.143Z,0.15
2023-01-26T22:30:22.743Z,0.16
2023-01-26T22:32:24.419Z,0.07
2023-01-26T22:34:26.425Z,0.02
2023-01-26T22:36:28.538Z,0.01
2023-01-26T22:38:31.460Z,-0.06
2023-01-26T22:40:33.183Z,-0.06
2023-01-26T22:42:34.770Z,-0.26
2023-01-26T22:44:36.631Z,-0.27
2023-01-26T22:46:38.484Z,-0.30
2023-01-26T22:48:40.199Z,-0.20
2023-01-26T22:50:42.272Z,-0.30
2023-01-26T22:52:43.946Z,-0.35
2023-01-26T22:54:45.655Z,-0.30
2023-01-26T22:56:47.215Z,-0.30
2023-01-26T22:58:57.948Z,-0.21
2023-01-26T23:01:14.732Z,-0.39
2023-01-26T23:03:16.423Z,-0.38
2023-01-26T23:05:18.010Z,-0.30
2023-01-26T23:07:19.614Z,-0.25
2023-01-26T23:09:21.229Z,-0.16
2023-01-26T23:11:25.034Z,-0.06
2023-01-26T23:13:26.674Z,0.05
2023-01-26T23:15:28.280Z,-0.02
2023-01-26T23:17:29.894Z,-0.11
2023-01-26T23:19:33.661Z,-0.04
2023-01-26T23:21:35.302Z,-0.10
2023-01-26T23:23:38.783Z,-0.12
2023-01-26T23:25:52.734Z,0.03
2023-01-26T23:27:54.317Z,0.17
2023-01-26T23:29:55.948Z,0.28
2023-01-26T23:31:57.634Z,0.30
2023-01-26T23:33:59.489Z,0.35
2023-01-26T23:36:01.612Z,0.11
2023-01-26T23:38:04.100Z,-0.02
2023-01-26T23:40:06.409Z,-0.06
2023-01-26T23:42:07.998Z,-0.04
2023-01-26T23:44:09.997Z,0.14
2023-01-26T23:46:11.943Z,0.20
2023-01-26T23:48:14.206Z,0.30
2023-01-26T23:50:16.093Z,0.34
2023-01-26T23:52:17.663Z,0.36
2023-01-26T23:54:19.347Z,0.42
2023-01-26T23:56:20.932Z,0.51
2023-01-26T23:58:22.538Z,0.50
